Time;durP1;ratioP1;P1;durP2;ratioP2;P2;SDS_P1;SDS_P2;PMS_P1;PMS_P2;Temp;Humidity;BMP_temperature;BMP_pressure;BME280_temperature;BME280_humidity;BME280_pressure;Samples;Min_cycle;Max_cycle;Signal;HPM_P1;HPM_P2
2023/09/30 03:03:00;;;;;;;22.25;5.47;;;18.70;90.70;;;;;;5166347;22;20092;-89
2023/09/30 03:05:27;;;;;;;16.75;5.93;;;18.80;90.70;;;;;;5029763;28;20397;-90
2023/09/30 03:07:54;;;;;;;17.83;6.43;;;18.70;90.70;;;;;;5026257;28;20052;-91
2023/09/30 03:10:23;;;;;;;21.42;5.95;;;18.70;90.70;;;;;;5030749;28;20025;-90
2023/09/30 03:12:56;;;;;;;23.90;6.15;;;18.70;90.70;;;;;;5029266;28;20075;-91
2023/09/30 03:15:22;;;;;;;22.95;6.30;;;18.70;90.70;;;;;;5030499;28;20029;-90
2023/09/30 03:17:48;;;;;;;30.65;7.47;;;18.70;90.70;;;;;;5041991;28;20021;-90
2023/09/30 03:20:18;;;;;;;19.90;6.18;;;18.70;90.70;;;;;;5025102;28;20032;-90
2023/09/30 03:22:46;;;;;;;17.60;5.88;;;18.70;90.70;;;;;;5025307;28;20044;-90
2023/09/30 03:25:15;;;;;;;25.85;6.45;;;18.70;91.00;;;;;;5033551;28;20147;-90
2023/09/30 03:27:41;;;;;;;20.75;6.32;;;19.20;90.80;;;;;;5024931;28;20049;-89
2023/09/30 03:30:08;;;;;;;24.60;6.68;;;18.70;90.60;;;;;;5030025;28;20108;-91
2023/09/30 03:32:38;;;;;;;18.83;5.93;;;18.60;90.60;;;;;;5023451;28;20485;-90
2023/09/30 03:35:05;;;;;;;25.40;6.30;;;18.60;90.60;;;;;;5025360;28;20547;-90
2023/09/30 03:37:32;;;;;;;17.58;6.25;;;18.60;90.60;;;;;;5039510;28;20084;-89
2023/09/30 03:39:57;;;;;;;24.95;6.32;;;18.70;90.60;;;;;;5024440;28;20067;-90
2023/09/30 03:42:23;;;;;;;18.27;5.35;;;18.70;90.60;;;;;;5023969;28;20028;-90
2023/09/30 03:44:50;;;;;;;20.67;4.90;;;18.70;90.60;;;;;;5025169;28;20035;-90
2023/09/30 03:47:19;;;;;;;23.70;5.32;;;19.20;90.80;;;;;;5044036;28;20037;-88
2023/09/30 03:49:45;;;;;;;18.25;5.20;;;18.70;90.60;;;;;;5042046;28;20018;-90
2023/09/30 03:52:11;;;;;;;16.15;5.00;;;19.10;90.70;;;;;;5026525;28;20038;-91
2023/09/30 03:54:37;;;;;;;12.55;4.75;;;18.70;90.60;;;;;;5026032;28;20031;-91
2023/09/30 03:57:03;;;;;;;18.80;5.95;;;18.60;90.60;;;;;;5042343;28;20388;-90
2023/09/30 03:59:30;;;;;;;24.92;5.78;;;18.60;90.60;;;;;;5023084;28;20040;-91
2023/09/30 04:01:58;;;;;;;23.02;5.97;;;18.60;90.60;;;;;;5026292;28;20032;-90
2023/09/30 04:04:25;;;;;;;20.98;5.53;;;18.70;90.60;;;;;;5042460;28;20017;-90
2023/09/30 04:06:51;;;;;;;18.45;5.63;;;18.80;90.60;;;;;;5029438;28;20107;-90
2023/09/30 04:09:17;;;;;;;19.67;5.97;;;18.60;90.60;;;;;;5026393;28;20593;-89
2023/09/30 04:11:43;;;;;;;16.50;5.80;;;18.60;90.60;;;;;;5041208;28;20048;-91
2023/09/30 04:14:09;;;;;;;19.77;6.03;;;18.60;90.60;;;;;;5024824;28;20033;-90
2023/09/30 04:16:37;;;;;;;14.15;5.03;;;18.70;90.60;;;;;;5026854;28;20013;-89
2023/09/30 04:19:03;;;;;;;13.45;4.45;;;18.60;90.60;;;;;;5027211;28;20473;-90
2023/09/30 04:21:30;;;;;;;22.33;6.25;;;18.60;90.60;;;;;;5040719;28;20047;-90
2023/09/30 04:23:56;;;;;;;19.17;4.28;;;18.60;90.60;;;;;;5039347;28;20075;-89
2023/09/30 04:26:22;;;;;;;16.40;5.63;;;18.60;90.60;;;;;;5039990;28;20026;-89
2023/09/30 04:28:49;;;;;;;14.88;5.00;;;18.60;90.60;;;;;;5025331;28;20024;-90
2023/09/30 04:31:15;;;;;;;12.68;4.40;;;18.70;90.60;;;;;;5040686;28;20017;-90
2023/09/30 04:33:41;;;;;;;18.33;4.95;;;18.60;90.60;;;;;;5024235;28;20036;-89
2023/09/30 04:36:10;;;;;;;15.25;4.88;;;18.70;90.60;;;;;;5024177;28;20025;-90
2023/09/30 04:38:39;;;;;;;12.38;4.47;;;18.60;90.60;;;;;;5024989;28;20029;-90
2023/09/30 04:41:07;;;;;;;14.68;4.88;;;18.60;90.60;;;;;;5023386;28;20040;-90
2023/09/30 04:43:33;;;;;;;19.27;4.95;;;18.60;90.50;;;;;;5041759;28;20033;-81
2023/09/30 04:45:58;;;;;;;16.88;4.88;;;18.60;90.50;;;;;;5042913;28;20027;-91
2023/09/30 04:48:24;;;;;;;12.15;3.90;;;18.60;90.50;;;;;;5040769;28;20025;-91
2023/09/30 04:50:51;;;;;;;17.45;5.00;;;18.60;90.50;;;;;;5024804;28;20057;-90
2023/09/30 04:53:17;;;;;;;16.30;6.95;;;18.60;90.50;;;;;;5031094;28;20039;-90
2023/09/30 04:55:44;;;;;;;18.38;4.47;;;18.60;90.50;;;;;;5044867;28;20025;-90
2023/09/30 04:58:10;;;;;;;19.23;4.93;;;18.60;90.50;;;;;;5027400;28;20021;-90
2023/09/30 05:00:35;;;;;;;14.00;4.65;;;18.60;90.50;;;;;;5049222;28;20028;-90
2023/09/30 05:03:01;;;;;;;14.88;4.80;;;18.60;90.50;;;;;;5026809;28;20491;-90
2023/09/30 05:05:30;;;;;;;16.40;5.38;;;18.60;90.50;;;;;;5026568;28;20151;-90
2023/09/30 05:07:57;;;;;;;18.92;4.88;;;18.60;90.50;;;;;;5027647;28;20086;-90
2023/09/30 05:10:24;;;;;;;16.13;4.32;;;18.60;90.50;;;;;;5026726;28;20032;-90
2023/09/30 05:12:49;;;;;;;13.70;4.03;;;18.60;90.50;;;;;;5025186;28;20036;-90
2023/09/30 05:15:16;;;;;;;16.90;4.75;;;18.60;90.50;;;;;;5042996;28;20021;-90
2023/09/30 05:17:45;;;;;;;11.25;4.15;;;18.60;90.50;;;;;;5044451;28;20051;-90
2023/09/30 05:20:12;;;;;;;21.13;6.35;;;18.60;90.50;;;;;;5022568;28;20057;-91
2023/09/30 05:22:40;;;;;;;22.80;7.47;;;18.60;90.50;;;;;;5021908;28;20052;-90
2023/09/30 05:25:07;;;;;;;24.48;8.43;;;19.30;90.70;;;;;;5027333;28;20094;-90
2023/09/30 05:27:33;;;;;;;19.48;7.15;;;18.60;90.50;;;;;;5021346;28;20094;-90
2023/09/30 05:29:59;;;;;;;18.90;5.78;;;18.60;90.50;;;;;;5029354;28;20022;-90
2023/09/30 05:32:26;;;;;;;18.27;6.00;;;18.60;90.50;;;;;;5040515;28;20421;-90
2023/09/30 05:34:53;;;;;;;20.77;5.82;;;18.60;90.80;;;;;;5023665;28;20071;-89
2023/09/30 05:37:21;;;;;;;14.10;4.47;;;18.60;90.50;;;;;;5029211;28;20032;-90
2023/09/30 05:39:48;;;;;;;16.58;5.63;;;19.20;90.60;;;;;;5025966;28;20028;-91
2023/09/30 05:42:18;;;;;;;16.90;4.38;;;18.70;90.50;;;;;;5026341;28;20579;-90
2023/09/30 05:44:44;;;;;;;18.85;4.60;;;18.60;90.50;;;;;;5038076;28;20025;-91
2023/09/30 05:47:10;;;;;;;14.07;4.95;;;18.80;90.50;;;;;;5031009;28;20033;-90
2023/09/30 05:49:36;;;;;;;18.52;4.43;;;18.60;90.50;;;;;;5025427;28;20393;-91
2023/09/30 05:52:02;;;;;;;16.83;4.55;;;18.60;90.50;;;;;;5040903;28;20029;-90
2023/09/30 05:54:28;;;;;;;13.18;4.55;;;18.60;90.50;;;;;;5027772;28;20021;-91
2023/09/30 05:56:54;;;;;;;18.30;5.95;;;18.60;90.50;;;;;;5025678;28;20030;-90
2023/09/30 05:59:20;;;;;;;16.52;6.20;;;18.60;90.50;;;;;;5029570;28;20028;-91
2023/09/30 06:01:46;;;;;;;16.92;6.53;;;18.60;90.50;;;;;;5025087;28;20389;-90
2023/09/30 06:04:12;;;;;;;19.85;5.60;;;18.70;90.50;;;;;;5048283;28;20059;-90
2023/09/30 06:06:38;;;;;;;21.38;5.82;;;18.60;90.50;;;;;;5026813;28;20477;-90
2023/09/30 06:09:07;;;;;;;21.30;5.78;;;18.60;90.40;;;;;;5033840;28;20377;-90
2023/09/30 06:11:33;;;;;;;15.20;5.80;;;18.60;90.40;;;;;;5018900;28;20095;-90
2023/09/30 06:14:00;;;;;;;21.63;6.20;;;18.60;90.50;;;;;;5028274;28;20029;-89
2023/09/30 06:16:26;;;;;;;23.92;5.70;;;18.60;90.40;;;;;;5041294;28;20071;-91
2023/09/30 06:18:53;;;;;;;14.18;4.72;;;18.60;90.40;;;;;;5040876;28;20017;-90
2023/09/30 06:21:20;;;;;;;11.98;4.38;;;18.60;90.40;;;;;;5022322;28;20505;-90
2023/09/30 06:23:51;;;;;;;9.82;4.35;;;18.60;90.40;;;;;;5021700;28;20025;-90
2023/09/30 06:26:17;;;;;;;14.90;5.38;;;18.60;90.40;;;;;;5028017;28;20051;-90
2023/09/30 06:28:43;;;;;;;15.05;5.13;;;18.60;90.40;;;;;;5023240;28;20032;-91
2023/09/30 06:31:09;;;;;;;15.57;4.75;;;18.60;90.50;;;;;;5023409;28;20398;-91
2023/09/30 06:33:39;;;;;;;12.85;5.10;;;18.60;90.40;;;;;;5022218;28;20121;-90
2023/09/30 06:36:16;;;;;;;18.60;4.25;;;18.60;90.40;;;;;;5022303;28;20100;-90
2023/09/30 06:38:43;;;;;;;12.57;4.63;;;19.10;90.60;;;;;;5025863;28;20040;-90
2023/09/30 06:41:09;;;;;;;18.48;4.65;;;18.60;90.40;;;;;;5030206;28;20045;-90
2023/09/30 06:43:35;;;;;;;16.75;4.63;;;18.90;90.50;;;;;;5023049;28;20056;-90
2023/09/30 06:46:09;;;;;;;15.48;4.63;;;18.60;90.40;;;;;;5023527;28;20025;-91
2023/09/30 06:48:35;;;;;;;14.13;4.68;;;18.60;90.40;;;;;;5022524;28;20131;-90
2023/09/30 06:51:00;;;;;;;13.48;4.55;;;18.60;90.50;;;;;;5023007;28;20036;-92
2023/09/30 06:53:27;;;;;;;16.15;4.85;;;18.60;90.40;;;;;;5029627;28;20061;-90
2023/09/30 06:55:52;;;;;;;13.25;4.55;;;18.60;90.40;;;;;;5020521;28;20122;-89
2023/09/30 06:58:21;;;;;;;11.40;4.40;;;18.60;90.40;;;;;;5041230;28;20026;-90
2023/09/30 07:00:56;;;;;;;14.93;5.30;;;18.60;90.40;;;;;;5023582;28;20032;-89
2023/09/30 07:03:22;;;;;;;14.80;5.10;;;18.60;90.40;;;;;;5043648;28;20346;-90
2023/09/30 07:05:51;;;;;;;10.40;4.85;;;19.30;90.60;;;;;;5025286;28;20032;-90
2023/09/30 07:08:17;;;;;;;13.63;4.38;;;18.60;90.40;;;;;;5032195;28;20118;-90
2023/09/30 07:10:46;;;;;;;15.18;5.38;;;19.00;90.60;;;;;;5028963;28;20087;-90
2023/09/30 07:13:12;;;;;;;11.82;5.13;;;18.60;90.40;;;;;;5034279;28;20127;-90
2023/09/30 07:15:37;;;;;;;14.77;5.57;;;18.60;90.50;;;;;;5025105;28;20262;-88
2023/09/30 07:18:03;;;;;;;16.02;5.78;;;18.60;90.50;;;;;;5026881;28;20688;-90
2023/09/30 07:20:32;;;;;;;12.45;4.55;;;18.60;90.40;;;;;;5030262;28;20022;-90
2023/09/30 07:22:59;;;;;;;15.00;5.03;;;18.70;90.50;;;;;;5031519;28;20040;-90
2023/09/30 07:25:25;;;;;;;11.38;4.63;;;18.60;90.50;;;;;;5040639;28;20029;-89
2023/09/30 07:27:50;;;;;;;9.85;4.75;;;18.60;90.40;;;;;;5025758;28;20036;-90
2023/09/30 07:30:17;;;;;;;13.30;4.80;;;18.60;90.50;;;;;;5026605;28;20025;-89
2023/09/30 07:32:43;;;;;;;8.07;4.68;;;18.60;90.50;;;;;;5027722;28;20059;-90
2023/09/30 07:35:10;;;;;;;14.90;4.80;;;18.60;90.50;;;;;;5033522;28;20448;-90
2023/09/30 07:37:35;;;;;;;12.20;4.22;;;18.60;90.50;;;;;;5025614;28;20056;-91
2023/09/30 07:40:01;;;;;;;11.32;4.78;;;18.70;90.50;;;;;;5024872;28;20049;-91
2023/09/30 07:42:26;;;;;;;13.50;4.55;;;18.60;90.50;;;;;;5024674;28;20108;-90
2023/09/30 07:44:53;;;;;;;13.20;5.07;;;18.70;90.50;;;;;;5025361;28;20030;-90
2023/09/30 07:47:19;;;;;;;7.60;3.85;;;18.60;90.50;;;;;;5025667;28;20021;-90
2023/09/30 07:49:45;;;;;;;11.07;4.13;;;18.60;90.50;;;;;;5031484;28;20513;-89
2023/09/30 07:52:10;;;;;;;12.15;3.92;;;18.60;90.50;;;;;;5035065;28;20124;-90
2023/09/30 07:54:36;;;;;;;12.45;4.18;;;18.60;90.50;;;;;;5032364;28;20021;-90
2023/09/30 07:57:02;;;;;;;14.38;4.60;;;18.60;90.50;;;;;;5025746;28;20078;-89
2023/09/30 07:59:27;;;;;;;10.93;4.53;;;18.60;90.50;;;;;;5024837;28;20496;-91
2023/09/30 08:01:53;;;;;;;8.43;4.20;;;18.70;90.60;;;;;;5024432;28;20037;-91
2023/09/30 08:04:19;;;;;;;16.10;4.85;;;18.60;90.50;;;;;;5023621;28;20021;-89
2023/09/30 08:06:45;;;;;;;12.30;4.93;;;18.60;90.50;;;;;;5024121;28;20031;-90
2023/09/30 08:09:14;;;;;;;10.75;4.60;;;18.60;90.50;;;;;;5030595;28;20029;-90
2023/09/30 08:11:40;;;;;;;10.38;4.60;;;18.70;90.60;;;;;;5025540;28;20044;-90
2023/09/30 08:14:06;;;;;;;12.85;5.13;;;18.70;90.60;;;;;;5042991;28;20025;-88
2023/09/30 08:16:38;;;;;;;14.48;5.35;;;18.70;90.60;;;;;;5025993;28;20021;-90
2023/09/30 08:19:04;;;;;;;11.30;4.88;;;18.70;90.60;;;;;;5022649;28;20036;-90
2023/09/30 08:21:30;;;;;;;12.05;4.47;;;18.70;90.60;;;;;;5024589;28;20067;-89
2023/09/30 08:23:57;;;;;;;15.40;5.15;;;18.70;90.60;;;;;;5026184;28;20033;-90
2023/09/30 08:26:22;;;;;;;13.75;4.75;;;18.70;90.60;;;;;;5041159;28;20013;-89
2023/09/30 08:28:48;;;;;;;13.32;4.95;;;18.70;90.60;;;;;;5024123;28;20028;-87
2023/09/30 08:31:14;;;;;;;10.98;4.85;;;18.70;90.60;;;;;;5025009;28;20381;-90
2023/09/30 08:33:43;;;;;;;11.82;4.82;;;19.00;90.60;;;;;;5032037;28;20022;-92
2023/09/30 08:36:09;;;;;;;14.85;4.95;;;18.70;90.60;;;;;;5023202;28;20033;-89
2023/09/30 08:38:36;;;;;;;9.52;4.55;;;18.70;90.60;;;;;;5025442;28;20116;-90
2023/09/30 08:41:02;;;;;;;10.25;5.43;;;18.70;90.60;;;;;;5021415;28;20021;-83
2023/09/30 08:43:30;;;;;;;16.63;6.28;;;18.70;90.60;;;;;;5037939;28;20096;-83
2023/09/30 08:45:57;;;;;;;15.93;5.93;;;18.60;90.40;;;;;;5038670;28;20071;-82
2023/09/30 08:48:30;;;;;;;17.08;5.38;;;18.60;90.30;;;;;;5038315;28;20477;-82
2023/09/30 08:50:57;;;;;;;17.55;5.95;;;18.60;90.20;;;;;;5039000;28;20037;-82
2023/09/30 08:53:24;;;;;;;22.30;5.97;;;18.50;90.20;;;;;;5039337;28;20087;-83
2023/09/30 08:55:55;;;;;;;12.52;5.28;;;18.80;90.60;;;;;;5038102;28;20032;-82
2023/09/30 08:58:25;;;;;;;16.35;6.75;;;18.40;90.20;;;;;;5039602;28;20052;-82
2023/09/30 09:00:51;;;;;;;14.95;4.93;;;18.40;90.20;;;;;;5039230;28;20033;-82
2023/09/30 09:03:19;;;;;;;12.20;4.72;;;18.40;90.30;;;;;;5037837;28;20024;-81
2023/09/30 09:05:44;;;;;;;15.00;4.55;;;18.30;90.40;;;;;;5039235;28;20521;-82
2023/09/30 09:08:10;;;;;;;9.25;4.45;;;18.30;90.30;;;;;;5038603;28;20060;-82
2023/09/30 09:10:47;;;;;;;8.90;3.95;;;18.30;90.30;;;;;;5039811;28;20048;-82
2023/09/30 09:13:14;;;;;;;12.18;4.43;;;18.30;90.30;;;;;;5041736;28;20037;-81
2023/09/30 09:15:41;;;;;;;10.95;5.00;;;18.30;90.30;;;;;;5037538;28;20151;-82
2023/09/30 09:18:06;;;;;;;9.38;4.13;;;18.30;90.30;;;;;;5020986;28;20029;-82
2023/09/30 09:20:32;;;;;;;9.50;4.07;;;18.30;90.30;;;;;;5020927;28;20021;-81
2023/09/30 09:23:00;;;;;;;10.88;5.03;;;18.30;90.60;;;;;;5024606;28;20088;-82
2023/09/30 09:25:26;;;;;;;13.20;4.57;;;18.30;90.30;;;;;;5041486;28;20094;-81
2023/09/30 09:27:53;;;;;;;9.98;3.83;;;18.20;90.30;;;;;;5040688;28;20113;-81
2023/09/30 09:30:26;;;;;;;9.95;4.20;;;18.20;90.30;;;;;;5038645;28;20021;-82
2023/09/30 09:33:04;;;;;;;7.47;3.60;;;18.20;90.30;;;;;;5038177;28;20033;-84
2023/09/30 09:35:34;;;;;;;16.05;5.07;;;18.20;90.40;;;;;;5039625;28;20083;-82
2023/09/30 09:38:04;;;;;;;11.73;4.28;;;18.30;90.50;;;;;;5037080;28;20031;-82
2023/09/30 09:40:40;;;;;;;10.75;4.28;;;18.30;90.50;;;;;;5039604;28;20445;-82
2023/09/30 09:43:06;;;;;;;10.35;4.30;;;18.30;90.50;;;;;;5036615;28;20108;-82
2023/09/30 09:45:37;;;;;;;12.30;4.10;;;18.30;90.50;;;;;;5040205;28;20017;-82
2023/09/30 09:48:04;;;;;;;11.13;4.55;;;18.30;90.50;;;;;;5036700;28;20423;-81
2023/09/30 09:50:32;;;;;;;10.77;4.68;;;18.30;90.50;;;;;;5038144;28;20030;-82
2023/09/30 09:53:00;;;;;;;18.35;5.22;;;18.30;90.40;;;;;;5037278;28;20116;-82
2023/09/30 09:55:27;;;;;;;13.57;4.55;;;18.30;90.30;;;;;;5040764;28;20103;-82
2023/09/30 09:57:54;;;;;;;10.82;4.25;;;18.60;90.30;;;;;;5020311;28;20426;-82
2023/09/30 10:00:23;;;;;;;9.82;4.47;;;18.30;90.20;;;;;;5036746;28;20057;-81
2023/09/30 10:02:49;;;;;;;12.52;5.03;;;18.30;90.20;;;;;;5038037;28;20045;-81
2023/09/30 10:05:16;;;;;;;13.18;4.35;;;18.30;90.20;;;;;;5039232;28;20036;-82
2023/09/30 10:07:55;;;;;;;13.50;4.22;;;18.30;90.50;;;;;;5037819;28;20245;-81
2023/09/30 10:10:23;;;;;;;16.98;4.05;;;18.30;90.10;;;;;;5019409;28;20768;-83
2023/09/30 10:12:49;;;;;;;13.00;3.97;;;18.30;90.10;;;;;;5038500;28;20042;-82
2023/09/30 10:15:26;;;;;;;13.38;3.60;;;18.30;90.10;;;;;;5037948;28;20040;-82
2023/09/30 10:18:12;;;;;;;13.88;4.68;;;18.30;90.10;;;;;;5039037;28;20044;-81
2023/09/30 10:20:44;;;;;;;17.75;4.85;;;18.40;90.20;;;;;;5039220;28;20024;-82
2023/09/30 10:23:24;;;;;;;14.50;5.18;;;18.40;90.20;;;;;;5039252;28;20052;-82
2023/09/30 10:25:57;;;;;;;10.70;4.57;;;18.40;90.20;;;;;;5041118;28;20628;-82
2023/09/30 10:28:44;;;;;;;11.15;4.43;;;18.40;90.10;;;;;;5041515;28;20044;-82
2023/09/30 10:31:19;;;;;;;10.27;4.70;;;18.40;90.10;;;;;;5041359;28;20069;-83
2023/09/30 10:34:02;;;;;;;13.07;4.88;;;18.40;90.10;;;;;;5045637;28;20033;-82
2023/09/30 10:36:29;;;;;;;12.98;4.90;;;18.50;90.10;;;;;;5044737;28;20389;-83
2023/09/30 10:38:55;;;;;;;12.20;4.93;;;18.50;90.10;;;;;;5046072;28;20018;-82
2023/09/30 10:41:39;;;;;;;10.70;4.78;;;18.50;90.00;;;;;;5042702;28;20032;-82
2023/09/30 10:44:26;;;;;;;14.60;5.57;;;18.50;90.00;;;;;;5042545;28;20057;-82
2023/09/30 10:46:53;;;;;;;15.85;5.80;;;18.60;90.00;;;;;;5042040;28;20377;-81
2023/09/30 10:49:24;;;;;;;8.77;3.78;;;18.60;89.70;;;;;;5040946;28;20026;-81
2023/09/30 10:51:57;;;;;;;11.80;4.40;;;18.60;89.30;;;;;;5040440;28;20099;-83
2023/09/30 10:54:25;;;;;;;20.23;5.20;;;18.60;89.50;;;;;;5023189;28;20410;-82
2023/09/30 10:56:51;;;;;;;17.13;5.47;;;18.60;89.60;;;;;;5042946;28;20607;-81
2023/09/30 10:59:24;;;;;;;12.45;4.72;;;18.60;89.50;;;;;;5039919;28;20051;-81
2023/09/30 11:01:51;;;;;;;20.08;5.00;;;18.50;90.00;;;;;;5041142;28;20033;-81
2023/09/30 11:04:18;;;;;;;18.42;5.13;;;18.60;89.10;;;;;;5043562;28;20120;-82
2023/09/30 11:06:44;;;;;;;11.05;4.70;;;18.60;89.10;;;;;;5024118;28;20439;-82
2023/09/30 11:09:19;;;;;;;15.48;5.40;;;18.60;89.10;;;;;;5041899;28;20043;-81
2023/09/30 11:11:50;;;;;;;13.93;4.97;;;18.60;88.90;;;;;;5041393;28;20021;-81
2023/09/30 11:14:28;;;;;;;14.38;4.95;;;18.50;88.90;;;;;;5040199;28;20873;-81
2023/09/30 11:16:56;;;;;;;15.75;5.03;;;18.50;88.90;;;;;;5040658;28;20367;-81
2023/09/30 11:19:22;;;;;;;12.63;4.90;;;18.50;88.50;;;;;;5038806;28;20036;-81
2023/09/30 11:21:53;;;;;;;14.27;4.97;;;18.60;88.40;;;;;;5041968;28;20108;-80
2023/09/30 11:24:19;;;;;;;13.77;5.65;;;18.50;88.30;;;;;;5039435;28;20099;-82
2023/09/30 11:26:45;;;;;;;16.48;6.00;;;18.60;88.20;;;;;;5040076;28;20037;-82
2023/09/30 11:29:16;;;;;;;16.17;4.65;;;18.60;88.10;;;;;;5038323;28;20133;-81
2023/09/30 11:31:43;;;;;;;16.98;5.38;;;18.60;88.00;;;;;;5039444;28;20033;-82
2023/09/30 11:34:11;;;;;;;15.77;5.47;;;18.60;87.90;;;;;;5024048;28;20037;-81
2023/09/30 11:36:40;;;;;;;14.15;5.40;;;19.20;87.70;;;;;;5039757;28;20055;-82
2023/09/30 11:39:08;;;;;;;12.85;4.93;;;18.60;86.80;;;;;;5040328;28;20052;-82
2023/09/30 11:41:39;;;;;;;20.20;5.15;;;18.70;87.20;;;;;;5040820;28;20504;-81
2023/09/30 11:44:12;;;;;;;13.10;5.32;;;19.20;87.30;;;;;;5040698;28;20021;-81
2023/09/30 11:46:53;;;;;;;12.32;5.10;;;19.60;86.80;;;;;;5038881;28;20028;-81
2023/09/30 11:49:29;;;;;;;17.83;6.03;;;18.70;86.70;;;;;;5040966;28;20362;-81
2023/09/30 11:51:57;;;;;;;14.55;5.05;;;18.70;86.80;;;;;;5039387;28;20560;-82
2023/09/30 11:54:22;;;;;;;13.70;4.63;;;18.80;86.90;;;;;;5040559;28;20028;-82
2023/09/30 11:56:50;;;;;;;15.02;5.07;;;18.80;87.00;;;;;;5044402;28;20245;-80
2023/09/30 11:59:19;;;;;;;16.92;5.32;;;19.30;87.20;;;;;;5040422;28;20512;-81
2023/09/30 12:01:45;;;;;;;17.65;5.53;;;18.80;87.10;;;;;;5039940;28;20983;-82
2023/09/30 12:04:11;;;;;;;16.27;5.10;;;18.80;86.90;;;;;;5039602;28;20044;-82
2023/09/30 12:06:38;;;;;;;18.02;6.22;;;18.80;86.20;;;;;;5040845;28;20101;-82
2023/09/30 12:09:04;;;;;;;18.70;5.13;;;18.80;86.10;;;;;;5039038;28;20025;-81
2023/09/30 12:11:29;;;;;;;20.30;6.30;;;18.80;85.60;;;;;;5040599;28;20036;-82
2023/09/30 12:13:55;;;;;;;13.88;4.97;;;18.80;85.40;;;;;;5038822;28;20052;-83
2023/09/30 12:16:21;;;;;;;12.82;4.57;;;18.80;85.70;;;;;;5038277;28;20070;-83
2023/09/30 12:18:46;;;;;;;12.30;4.95;;;18.80;86.10;;;;;;5039000;28;20485;-83
2023/09/30 12:21:20;;;;;;;12.85;5.05;;;18.80;86.30;;;;;;5038805;28;20584;-81
2023/09/30 12:23:46;;;;;;;16.10;4.90;;;18.80;86.30;;;;;;5038751;28;20033;-82
2023/09/30 12:26:12;;;;;;;14.18;4.82;;;18.80;86.30;;;;;;5023061;28;20031;-79
2023/09/30 12:28:40;;;;;;;17.63;5.70;;;18.80;86.30;;;;;;5039528;28;20449;-82
2023/09/30 12:31:06;;;;;;;14.57;5.25;;;18.80;86.60;;;;;;5038426;28;20496;-82
2023/09/30 12:33:32;;;;;;;14.85;4.72;;;18.80;86.40;;;;;;5041178;28;20542;-82
2023/09/30 12:35:58;;;;;;;15.85;4.40;;;19.30;86.70;;;;;;5039191;28;20025;-82
2023/09/30 12:38:28;;;;;;;16.40;6.15;;;18.80;86.60;;;;;;5039421;28;20172;-82
2023/09/30 12:40:54;;;;;;;;;;;18.80;86.80;;;;;;5040810;28;20076;-82
2023/09/30 12:43:20;;;;;;;12.05;5.05;;;18.80;86.60;;;;;;5037704;28;19947;-82
2023/09/30 12:45:47;;;;;;;19.30;5.97;;;18.80;86.50;;;;;;5038516;28;20052;-83
2023/09/30 12:48:13;;;;;;;13.10;5.68;;;18.80;86.20;;;;;;5039436;28;20068;-82
2023/09/30 12:50:38;;;;;;;19.55;6.18;;;18.80;86.30;;;;;;5038949;28;20060;-81
2023/09/30 12:53:05;;;;;;;14.63;5.03;;;18.80;86.20;;;;;;5037970;28;20443;-81
2023/09/30 12:55:30;;;;;;;13.27;5.00;;;18.80;86.20;;;;;;5039613;28;20033;-81
2023/09/30 12:57:56;;;;;;;19.45;5.18;;;18.80;86.20;;;;;;5037827;28;20123;-81
2023/09/30 13:00:22;;;;;;;16.23;6.03;;;18.80;86.00;;;;;;5037887;28;20032;-81
2023/09/30 13:02:48;;;;;;;17.15;5.90;;;18.80;85.90;;;;;;5038849;28;20041;-82
2023/09/30 13:05:16;;;;;;;18.92;5.95;;;18.80;85.20;;;;;;5039297;28;20381;-80
2023/09/30 13:07:42;;;;;;;14.90;5.28;;;18.80;85.40;;;;;;5038681;28;20040;-82
2023/09/30 13:10:09;;;;;;;12.95;5.53;;;18.80;85.60;;;;;;5039538;28;20051;-81
2023/09/30 13:12:34;;;;;;;13.30;5.32;;;18.80;85.60;;;;;;5037939;28;20040;-81
2023/09/30 13:15:01;;;;;;;13.90;4.88;;;18.80;85.80;;;;;;5039543;28;20033;-80
2023/09/30 13:17:26;;;;;;;17.02;6.32;;;18.80;85.70;;;;;;5037997;28;20030;-81
2023/09/30 13:19:52;;;;;;;18.33;5.93;;;18.80;85.60;;;;;;5038317;28;20377;-82
2023/09/30 13:22:18;;;;;;;22.45;5.97;;;18.80;85.40;;;;;;5036824;28;20040;-80
2023/09/30 13:24:44;;;;;;;13.82;5.28;;;18.80;85.60;;;;;;5039104;28;20041;-82
2023/09/30 13:27:09;;;;;;;22.33;5.80;;;18.80;85.70;;;;;;5040088;28;20021;-80
2023/09/30 13:29:35;;;;;;;23.15;5.95;;;18.80;85.60;;;;;;5039787;28;20026;-81
2023/09/30 13:32:01;;;;;;;14.77;5.25;;;18.80;85.60;;;;;;5037859;28;20049;-82
2023/09/30 13:34:28;;;;;;;21.70;6.65;;;18.80;85.10;;;;;;5037899;28;20124;-81
2023/09/30 13:36:55;;;;;;;20.27;6.38;;;18.80;84.90;;;;;;5037247;28;20548;-82
2023/09/30 13:39:21;;;;;;;18.58;6.38;;;19.20;84.60;;;;;;5037899;28;20415;-82
2023/09/30 13:41:49;;;;;;;14.75;5.63;;;18.80;84.00;;;;;;5037144;28;20025;-81
2023/09/30 13:44:15;;;;;;;21.67;5.65;;;18.80;84.00;;;;;;5039971;28;20035;-82
2023/09/30 13:46:42;;;;;;;14.75;5.45;;;18.80;83.80;;;;;;5036498;28;20075;-81
2023/09/30 13:49:08;;;;;;;16.38;5.88;;;18.80;84.00;;;;;;5036931;28;20031;-82
2023/09/30 13:51:33;;;;;;;16.75;6.05;;;18.80;84.30;;;;;;5040293;28;20030;-82
2023/09/30 13:53:59;;;;;;;14.82;5.68;;;18.80;84.40;;;;;;5036140;28;20116;-81
2023/09/30 13:56:24;;;;;;;17.30;6.40;;;18.80;84.30;;;;;;5036133;28;20025;-81
2023/09/30 13:58:50;;;;;;;19.90;5.72;;;18.80;84.20;;;;;;5038873;28;20036;-82
2023/09/30 14:01:16;;;;;;;15.02;5.50;;;18.80;84.00;;;;;;5040231;28;20030;-82
2023/09/30 14:03:41;;;;;;;15.52;5.50;;;18.80;84.20;;;;;;5036629;28;20112;-82
2023/09/30 14:06:11;;;;;;;22.27;6.60;;;18.80;84.50;;;;;;5038646;28;20034;-82
2023/09/30 14:08:37;;;;;;;;;;;18.80;84.50;;;;;;5038408;28;20049;-82
2023/09/30 14:11:03;;;;;;;18.38;4.60;;;19.00;84.60;;;;;;5036989;28;19964;-82
2023/09/30 14:13:28;;;;;;;15.65;4.97;;;18.80;84.40;;;;;;5039231;28;20037;-81
2023/09/30 14:15:54;;;;;;;17.98;5.70;;;18.80;84.50;;;;;;5037523;28;20108;-82
2023/09/30 14:18:20;;;;;;;15.52;5.13;;;18.80;84.70;;;;;;5041706;28;20087;-82
2023/09/30 14:20:45;;;;;;;19.63;5.78;;;18.80;84.50;;;;;;5042712;28;20469;-82
2023/09/30 14:23:11;;;;;;;16.15;5.22;;;18.80;84.30;;;;;;5043205;28;20036;-82
2023/09/30 14:25:37;;;;;;;21.70;5.95;;;18.80;84.00;;;;;;5025209;28;20024;-82
2023/09/30 14:28:03;;;;;;;19.13;6.22;;;18.80;83.70;;;;;;5042596;28;20025;-82
2023/09/30 14:30:29;;;;;;;16.58;5.85;;;18.80;83.80;;;;;;5041210;28;20078;-81
2023/09/30 14:32:55;;;;;;;14.68;5.63;;;18.80;83.40;;;;;;5041682;28;20040;-82
2023/09/30 14:35:20;;;;;;;20.80;6.15;;;18.80;83.40;;;;;;5030821;28;20025;-80
2023/09/30 14:37:46;;;;;;;18.13;6.57;;;18.80;83.70;;;;;;5040085;28;20026;-81
2023/09/30 14:40:12;;;;;;;16.60;6.43;;;18.80;83.70;;;;;;5048273;28;20024;-82
2023/09/30 14:42:38;;;;;;;15.57;5.20;;;18.80;83.90;;;;;;5028574;28;20017;-82
2023/09/30 14:45:04;;;;;;;19.73;6.40;;;18.80;83.80;;;;;;5041132;28;20106;-82
2023/09/30 14:47:30;;;;;;;18.25;6.00;;;18.80;83.90;;;;;;5045375;28;20028;-82
2023/09/30 14:49:55;;;;;;;16.15;5.05;;;19.30;84.20;;;;;;5043300;28;20474;-81
2023/09/30 14:52:21;;;;;;;14.98;5.35;;;18.70;83.70;;;;;;5040833;28;20021;-81
2023/09/30 14:54:47;;;;;;;15.73;5.90;;;18.70;83.90;;;;;;5043709;28;20028;-82
2023/09/30 14:57:15;;;;;;;19.58;5.90;;;18.70;84.10;;;;;;5041694;28;20021;-81
2023/09/30 14:59:41;;;;;;;14.75;4.97;;;18.70;84.10;;;;;;5040342;28;20052;-82
2023/09/30 15:02:10;;;;;;;21.23;5.97;;;18.70;84.10;;;;;;5041123;28;20037;-81
2023/09/30 15:04:36;;;;;;;17.75;6.18;;;18.70;84.30;;;;;;5040643;28;20107;-81
2023/09/30 15:07:02;;;;;;;23.80;7.30;;;18.70;84.50;;;;;;5041473;28;20096;-81
2023/09/30 15:09:28;;;;;;;19.55;6.28;;;18.80;84.70;;;;;;5041440;28;20021;-80
2023/09/30 15:11:53;;;;;;;14.90;5.38;;;18.70;84.30;;;;;;5041378;28;20136;-81
2023/09/30 15:14:19;;;;;;;19.05;6.35;;;18.70;84.40;;;;;;5045569;28;20017;-82
2023/09/30 15:16:45;;;;;;;21.23;6.05;;;18.70;84.40;;;;;;5041484;28;20037;-82
2023/09/30 15:19:10;;;;;;;20.42;6.70;;;18.70;84.30;;;;;;5040055;28;20037;-81
2023/09/30 15:21:36;;;;;;;39.00;13.20;;;18.70;84.00;;;;;;5040630;28;20099;-81
2023/09/30 15:24:03;;;;;;;19.90;7.70;;;18.70;84.10;;;;;;5040197;28;20416;-81
2023/09/30 15:26:29;;;;;;;16.92;6.82;;;18.70;84.10;;;;;;5040796;28;20058;-81
2023/09/30 15:28:55;;;;;;;17.23;6.32;;;18.60;84.00;;;;;;5039745;28;20021;-81
2023/09/30 15:31:20;;;;;;;13.38;5.63;;;18.70;84.20;;;;;;5042448;28;20036;-81
2023/09/30 15:33:46;;;;;;;16.63;5.95;;;18.70;84.20;;;;;;5039414;28;20038;-81
2023/09/30 15:36:13;;;;;;;18.52;6.47;;;18.70;84.20;;;;;;5039756;28;20013;-81
2023/09/30 15:38:40;;;;;;;15.20;5.72;;;18.70;84.20;;;;;;5039309;28;20025;-81
2023/09/30 15:41:06;;;;;;;20.48;7.10;;;18.60;84.20;;;;;;5038210;28;20021;-81